Flight Track Log - Related Links

Times and Time Zones

All times are in EDT time to prevent confusion due to time zone crossing. See the N506SA flight status page for this flight to view local times or setup timezone preferences in your user account.

Time Position Orientation Groundspeed Altitude Reporting Facility
EDT Latitude Longitude Course Direction KTS MPH feet Rate Location/Type
Sat 01:05:21 PM 40.8833 -74.0333 339° North 201 231 2,000  Level New York TRACON
Sat 01:06:21 PM 40.9167 -74.0500 339° North 187 215 3,600 1,700 Climbing New York TRACON
Sat 01:07:21 PM 40.8667 -74.1000 217° Southwest 241 277 5,400 1,750 Climbing New York TRACON
Sat 01:08:21 PM 40.7833 -74.1333 197° South 298 343 7,100 2,000 Climbing New York TRACON
Sat 01:09:21 PM 40.7167 -74.1833 210° Southwest 312 359 9,400 2,474 Climbing New York TRACON
Sat 01:10:15 PM 40.6333 -74.2000 189° South 338 389 11,800 2,579 Climbing New York TRACON
Sat 01:11:15 PM 40.5167 -74.1833 174° South 390 449 14,300 2,550 Climbing New York TRACON
Sat 01:12:15 PM 40.4167 -74.1667 173° South 406 467 16,900 1,102 Climbing New York TRACON
Sat 01:13:42 PM 40.2519 -74.1811 184° South 421 484 17,000 449 Climbing New York Center
Sat 01:14:42 PM 40.1425 -74.2139 193° South 411 473 18,000 1,896 Climbing New York Center
Sat 01:16:55 PM 39.9111 -74.3417 203° Southwest 416 479 23,100 2,351 Climbing Washington Center
Sat 01:17:56 PM 39.8164 -74.4353 217° Southwest 424 488 25,600 2,459 Climbing Washington Center
Sat 01:18:57 PM 39.7339 -74.5472 226° Southwest 436 502 28,100 2,168 Climbing Washington Center
Sat 01:19:55 PM 39.6453 -74.6617 225° Southwest 443 510 29,900 958 Climbing Washington Center
Sat 01:20:56 PM 39.5544 -74.7786 225° Southwest 448 516 30,000 1,190 Climbing Washington Center
Sat 01:21:56 PM 39.4636 -74.9008 226° Southwest 459 528 32,300 2,300 Climbing Washington Center
Sat 01:22:56 PM 39.3706 -75.0197 225° Southwest 464 534 34,600 1,736 Climbing Washington Center
Sat 01:23:57 PM 39.2936 -75.1089 222° Southwest 464 534 35,800 1,438 Climbing Washington Center
Sat 01:24:57 PM 39.1711 -75.1714 202° Southwest 471 542 37,500 1,119 Climbing Washington Center
Sat 01:25:55 PM 39.0400 -75.2494 205° Southwest 471 542 38,000 252 Climbing Washington Center
Sat 01:26:56 PM 38.9172 -75.3114 201° Southwest 476 548 38,000  Level Washington Center
Sat 01:27:56 PM 38.7922 -75.3758 202° Southwest 481 554 38,000  Level Washington Center
Sat 01:28:57 PM 38.6692 -75.4400 202° Southwest 481 554 38,000  Level Washington Center
Sat 01:29:57 PM 38.5483 -75.5014 202° Southwest 476 548 38,000  Level Washington Center
Sat 01:30:55 PM 38.4275 -75.5625 202° Southwest 476 548 38,000  Level Washington Center
Sat 01:31:56 PM 38.3067 -75.6289 203° Southwest 476 548 38,000  Level Washington Center
Sat 01:32:56 PM 38.1836 -75.6894 201° Southwest 481 554 38,000  Level Washington Center
Sat 01:33:56 PM 38.0606 -75.7528 202° Southwest 481 554 38,000  Level Washington Center
Sat 01:34:57 PM 37.9497 -75.8156 204° Southwest 481 554 38,000  Level Washington Center
Sat 01:35:55 PM 37.8100 -75.8808 200° South 487 560 38,000  Level Washington Center
Sat 01:36:56 PM 37.6783 -75.9514 203° Southwest 480 552 38,000  Level Washington Center
Sat 01:37:54 PM 37.5531 -76.0161 202° Southwest 480 552 38,000  Level Washington Center
Sat 01:38:55 PM 37.4297 -76.0783 202° Southwest 480 552 38,000  Level Washington Center
Sat 01:39:55 PM 37.3022 -76.1403 201° Southwest 480 552 38,000  Level Washington Center
Sat 01:40:56 PM 37.1872 -76.1942 200° South 487 560 38,000  Level Washington Center
Sat 01:41:55 PM 37.0575 -76.2581 201° Southwest 493 567 38,000  Level Washington Center
Sat 01:42:56 PM 36.9319 -76.3194 201° Southwest 493 567 38,000  Level Washington Center
Sat 01:43:57 PM 36.8044 -76.3831 202° Southwest 493 567 38,000 -50 Level Washington Center
Sat 01:44:57 PM 36.6786 -76.4492 203° Southwest 493 567 37,900  Descending Washington Center
Sat 01:45:56 PM 36.5572 -76.5100 202° Southwest 488 562 38,000 50 Climbing Washington Center
Sat 01:46:56 PM 36.4317 -76.5678 200° South 483 556 38,000  Level Washington Center
Sat 01:47:56 PM 36.3058 -76.6281 201° Southwest 483 556 38,000  Level Washington Center
Sat 01:48:57 PM 36.1678 -76.6675 193° South 495 570 38,000  Level Washington Center
Sat 01:49:55 PM 36.0319 -76.6964 190° South 500 575 38,000 -51 Level Washington Center
Sat 01:50:55 PM 35.8961 -76.7203 188° South 505 581 37,900  Descending Washington Center
Sat 01:51:56 PM 35.7603 -76.7464 189° South 500 575 38,000 50 Climbing Washington Center
Sat 01:52:56 PM 35.6286 -76.7728 189° South 494 568 38,000  Level Washington Center
Sat 01:53:57 PM 35.4950 -76.7936 187° South 488 562 38,000  Level Washington Center
Sat 01:54:57 PM 35.3653 -76.8275 192° South 483 556 38,000  Level Washington Center
Sat 01:55:55 PM 35.2292 -76.8533 189° South 491 565 38,000  Level Washington Center
Sat 01:56:56 PM 35.0828 -76.8814 189° South 491 565 38,000  Level Washington Center
Sat 01:57:56 PM 34.9492 -76.9072 189° South 486 559 38,000  Level Washington Center
Sat 01:58:57 PM 34.8153 -76.9328 189° South 486 559 38,000  Level Washington Center
Sat 01:59:55 PM 34.6836 -76.9611 190° South 486 559 38,000  Level Washington Center
Sat 02:00:56 PM 34.5475 -76.9839 188° South 486 559 38,000  Level Washington Center
Sat 02:01:57 PM 34.4181 -77.0119 190° South 486 559 38,000  Level Washington Center
Sat 02:02:57 PM 34.2800 -77.0372 189° South 486 559 38,000 133 Level Washington Center
Sat 02:04:57 PM 33.9972 -77.0917 189° South 508 585 38,400 467 Climbing Jacksonville Center
Sat 02:05:57 PM 33.8567 -77.1186 189° South 514 592 39,400 2,300 Climbing Jacksonville Center
Sat 02:06:57 PM 33.7200 -77.1425 188° South 519 597 43,000 1,800 Climbing Jacksonville Center
Sat 02:07:57 PM 33.5897 -77.1683 189° South 499 574 43,000  Level Jacksonville Center
Sat 02:08:57 PM 33.4594 -77.1917 188° South 486 559 43,000  Level Jacksonville Center
Sat 02:09:57 PM 33.3331 -77.2172 190° South 475 547 43,000  Level Jacksonville Center
Sat 02:10:57 PM 33.2006 -77.2406 188° South 475 547 43,000  Level Jacksonville Center
Sat 02:11:57 PM 33.0744 -77.2633 189° South 475 547 43,000  Level Jacksonville Center
Sat 02:12:57 PM 32.9419 -77.2892 189° South 475 547 43,000  Level Jacksonville Center
Sat 02:13:57 PM 32.8094 -77.3122 188° South 486 559 43,000  Level Jacksonville Center
Sat 02:14:57 PM 32.6792 -77.3375 189° South 480 552 43,000  Level Jacksonville Center
Sat 02:15:57 PM 32.5444 -77.3606 188° South 487 560 43,000  Level Jacksonville Center
Sat 02:16:57 PM 32.4264 -77.3800 188° South 487 560 43,000  Level Jacksonville Center
Sat 02:17:57 PM 32.2919 -77.4053 189° South 487 560 43,000  Level Jacksonville Center
Sat 02:18:57 PM 32.1614 -77.4303 189° South 487 560 43,000  Level Jacksonville Center
Sat 02:19:57 PM 32.0289 -77.4531 188° South 482 555 43,000  Level Jacksonville Center
Sat 02:20:57 PM 31.9006 -77.4775 189° South 477 549 43,000  Level Jacksonville Center
Sat 02:21:57 PM 31.7681 -77.5050 190° South 483 556 43,000  Level Jacksonville Center
Sat 02:22:57 PM 31.6417 -77.5269 188° South 478 550 43,000  Level Jacksonville Center
Sat 02:23:57 PM 31.5111 -77.5514 189° South 478 550 43,000  Level Jacksonville Center
Sat 02:24:57 PM 31.3806 -77.5736 188° South 478 550 43,000  Level Jacksonville Center
Sat 02:25:57 PM 31.2522 -77.5978 189° South 478 550 43,000  Level Jacksonville Center
Sat 02:26:57 PM 31.1236 -77.6147 186° South 478 550 43,000  Level Jacksonville Center
Sat 02:27:57 PM 30.9950 -77.6317 186° South 478 550 43,000  Level Jacksonville Center
Sat 02:28:57 PM 30.8633 -77.6319 180° South 478 550 43,000  Level Jacksonville Center
Sat 02:29:57 PM 30.7294 -77.6247 177° South 478 550 43,000  Level Jacksonville Center
Sat 02:32:22 PM 30.4117 -77.6183 179° South 482 555 43,000  Level Miami Center
Sat 02:33:22 PM 30.2722 -77.6172 180° South 476 548 43,000  Level Miami Center
Sat 02:34:22 PM 30.1367 -77.6092 177° South 481 554 43,000  Level Miami Center
Sat 02:35:22 PM 30.0053 -77.6058 179° South 476 548 43,000  Level Miami Center
Sat 02:36:22 PM 29.8739 -77.6000 178° South 476 548 43,000  Level Miami Center
Sat 02:37:22 PM 29.7406 -77.5944 178° South 472 543 43,000  Level Miami Center
Sat 02:38:22 PM 29.6133 -77.5911 179° South 471 542 43,000  Level Miami Center
Sat 02:39:22 PM 29.4736 -77.5831 177° South 479 551 43,000  Level Miami Center
Sat 02:40:22 PM 29.3464 -77.5775 178° South 478 550 43,000  Level Miami Center
Sat 02:41:22 PM 29.2150 -77.5719 178° South 473 544 43,000  Level Miami Center
Sat 02:42:22 PM 29.0836 -77.5664 178° South 479 551 43,000  Level Miami Center
Sat 02:43:22 PM 28.9542 -77.5631 179° South 474 545 43,000  Level Miami Center
Sat 02:44:22 PM 28.8247 -77.5575 178° South 474 545 43,000  Level Miami Center
Sat 02:45:22 PM 28.6914 -77.5519 178° South 480 552 43,000  Level Miami Center
Sat 02:46:22 PM 28.5597 -77.5464 178° South 476 548 43,000  Level Miami Center
Sat 02:47:22 PM 28.4283 -77.5433 179° South 470 541 43,000  Level Miami Center
Sat 02:48:22 PM 28.2969 -77.5378 178° South 465 535 43,000  Level Miami Center
Sat 02:49:22 PM 28.1717 -77.5322 178° South 470 541 43,000  Level Miami Center
Sat 02:50:22 PM 28.0422 -77.5244 177° South 470 541 43,000  Level Miami Center
Sat 02:51:22 PM 27.9128 -77.5214 179° South 476 548 43,000  Level Miami Center
Sat 02:52:22 PM 27.7811 -77.5158 178° South 470 541 43,000  Level Miami Center
Sat 02:53:22 PM 27.6456 -77.5128 179° South 476 548 43,000  Level Miami Center
Sat 02:54:22 PM 27.5181 -77.5122 180° South 476 548 43,000  Level Miami Center
Sat 02:55:22 PM 27.3886 -77.5019 176° South 476 548 43,000  Level Miami Center
Sat 02:56:22 PM 27.2592 -77.5014 180° South 476 548 43,000  Level Miami Center
Sat 02:57:22 PM 27.1361 -77.4936 177° South 465 535 43,000  Level Miami Center
Sat 02:58:22 PM 27.0086 -77.4858 177° South 459 528 43,000  Level Miami Center
Sat 02:59:22 PM 26.8792 -77.4853 180° South 459 528 43,000 50 Level Miami Center
Sat 03:00:22 PM 26.7539 -77.4775 177° South 459 528 43,100 650 Climbing Miami Center
Sat 03:01:22 PM 26.6367 -77.4725 178° South 459 528 44,300 950 Climbing Miami Center
Sat 03:02:22 PM 26.5114 -77.4694 179° South 459 528 45,000 350 Climbing Miami Center
Sat 03:03:22 PM 26.3861 -77.4642 178° South 459 528 45,000  Level Miami Center
Sat 03:04:22 PM 26.2567 -77.4567 177° South 459 528 45,000  Level Miami Center
Sat 03:05:22 PM 26.1228 -77.4536 179° South 465 535 45,000  Level Miami Center
Sat 03:06:22 PM 25.9786 -77.4458 177° South 465 535 45,000  Level Miami Center
Sat 03:07:22 PM 25.8514 -77.4431 179° South 470 541 45,000  Level Miami Center
Sat 03:08:22 PM 25.7239 -77.4378 178° South 470 541 45,000  Level Miami Center
Sat 03:09:22 PM 25.5922 -77.4325 178° South 465 535 45,000  Level Miami Center
Sat 03:10:22 PM 25.4647 -77.4272 178° South 465 535 45,000  Level Miami Center
Sat 03:11:22 PM 25.3372 -77.4244 179° South 458 527 45,000  Level Miami Center
Sat 03:12:22 PM 25.2119 -77.4169 177° South 458 527 45,000  Level Miami Center
Sat 03:13:22 PM 25.0781 -77.4142 179° South 463 533 45,000  Level Miami Center
Sat 03:14:22 PM 24.9467 -77.4089 178° South 468 539 45,000  Level Miami Center
Sat 03:15:22 PM 24.8253 -77.4039 178° South 481 554 45,000  Level Miami Center
Sat 03:16:22 PM 24.7000 -77.4008 179° South 471 542 45,000  Level Miami Center
Sat 03:17:22 PM 24.5703 -77.3958 178° South 466 536 45,000  Level Miami Center
Sat 03:19:22 PM 24.3133 -77.3878 178° South 461 531 45,000  Level Miami Center
Sat 03:20:22 PM 24.1858 -77.3850 179° South 461 531 45,000  Level Miami Center
Sat 03:21:22 PM 24.0583 -77.3778 177° South 461 531 45,000  Level Miami Center
Sat 03:22:22 PM 23.9289 -77.3728 178° South 461 531 45,000  Level Miami Center
Sat 03:23:22 PM 23.8036 -77.3700 179° South 461 531 45,000  Level Miami Center
Sat 03:24:22 PM 23.6761 -77.3672 179° South 461 531 45,000  Level Miami Center
Sat 03:25:22 PM 23.5361 -77.3619 178° South 455 524 45,000  Level Miami Center
Sat 03:27:00 PM 23.3264 -77.3342 176° South  Level FlightAware Approximate
Sat 03:34:00 PM 22.4279 -77.2604 176° South  Level FlightAware Approximate
Sat 03:35:00 PM 22.2996 -77.2500 176° South  Level FlightAware Approximate
Sat 03:36:00 PM 22.1712 -77.2395 176° South  Level FlightAware Approximate
Sat 03:37:00 PM 22.0429 -77.2291 176° South  Level FlightAware Approximate
Sat 03:38:00 PM 21.9146 -77.2187 176° South  Level FlightAware Approximate
Sat 03:39:00 PM 21.7862 -77.2083 176° South  Level FlightAware Approximate
Sat 03:40:00 PM 21.6578 -77.1981 176° South  Level FlightAware Approximate
Sat 03:41:00 PM 21.5294 -77.1888 176° South  Level FlightAware Approximate
Sat 03:42:00 PM 21.4010 -77.1794 176° South  Level FlightAware Approximate
Sat 03:43:00 PM 21.2726 -77.1701 176° South  Level FlightAware Approximate
Sat 03:44:00 PM 21.1441 -77.1608 176° South  Level FlightAware Approximate
Sat 03:45:00 PM 21.0157 -77.1515 176° South  Level FlightAware Approximate
Sat 03:46:00 PM 20.8873 -77.1422 176° South  Level FlightAware Approximate
Sat 03:47:00 PM 20.7589 -77.1330 176° South  Level FlightAware Approximate
Sat 03:48:00 PM 20.6305 -77.1237 176° South  Level FlightAware Approximate
Sat 03:49:00 PM 20.5021 -77.1145 176° South  Level FlightAware Approximate
Sat 03:50:00 PM 20.3736 -77.1053 176° South  Level FlightAware Approximate
Sat 03:51:00 PM 20.2456 -77.0919 172° South  Level FlightAware Approximate
Sat 03:52:00 PM 20.1181 -77.0730 172° South  Level FlightAware Approximate
Sat 03:53:00 PM 19.9906 -77.0542 172° South  Level FlightAware Approximate
Sat 03:54:00 PM 19.8631 -77.0353 172° South  Level FlightAware Approximate
Sat 03:55:00 PM 19.7356 -77.0165 172° South  Level FlightAware Approximate
Sat 03:56:00 PM 19.6081 -76.9977 172° South  Level FlightAware Approximate
Sat 03:57:00 PM 19.4806 -76.9790 172° South  Level FlightAware Approximate
Sat 03:58:00 PM 19.3531 -76.9602 172° South  Level FlightAware Approximate
Sat 03:59:00 PM 19.2256 -76.9422 173° South  Level FlightAware Approximate
Sat 04:00:00 PM 19.0979 -76.9249 173° South  Level FlightAware Approximate
Sat 04:01:00 PM 18.9702 -76.9077 173° South  Level FlightAware Approximate
Sat 04:02:00 PM 18.8425 -76.8905 173° South  Level FlightAware Approximate
Sat 04:03:00 PM 18.7148 -76.8734 173° South  Level FlightAware Approximate
Sat 04:04:00 PM 18.5872 -76.8562 173° South  Level FlightAware Approximate
Sat 04:05:00 PM 18.4595 -76.8391 173° South  Level FlightAware Approximate
Sat 04:06:00 PM 18.3318 -76.8220 173° South  Level FlightAware Approximate
Sat 04:07:00 PM 18.2041 -76.8050 173° South  Level FlightAware Approximate
Sat 04:08:00 PM 18.0764 -76.7879 173° South  Level FlightAware Approximate
Sat 04:09:00 PM 17.9487 -76.7709 173° South  Level FlightAware Approximate
Sat 04:10:00 PM 17.8236 -76.7402 165° South  Level FlightAware Approximate
Sat 04:11:00 PM 17.6993 -76.7049 165° South  Level FlightAware Approximate
Sat 04:12:00 PM 17.5751 -76.6697 165° South  Level FlightAware Approximate
Sat 04:13:00 PM 17.4508 -76.6345 165° South  Level FlightAware Approximate
Sat 04:14:00 PM 17.3265 -76.5993 165° South  Level FlightAware Approximate
Sat 04:15:00 PM 17.2023 -76.5642 165° South  Level FlightAware Approximate
Sat 04:16:00 PM 17.0780 -76.5292 165° South  Level FlightAware Approximate
Sat 04:17:00 PM 16.9537 -76.4942 165° South  Level FlightAware Approximate
Sat 04:18:00 PM 16.8294 -76.4592 165° South  Level FlightAware Approximate
Sat 04:19:00 PM 16.7051 -76.4243 165° South  Level FlightAware Approximate
Sat 04:20:00 PM 16.5808 -76.3895 165° South  Level FlightAware Approximate
Sat 04:21:00 PM 16.4565 -76.3546 165° South  Level FlightAware Approximate
Sat 04:22:00 PM 16.3322 -76.3199 165° South  Level FlightAware Approximate
Sat 04:23:00 PM 16.2079 -76.2851 165° South  Level FlightAware Approximate
Sat 04:24:00 PM 16.0835 -76.2505 165° South  Level FlightAware Approximate
Sat 04:25:00 PM 15.9592 -76.2158 165° South  Level FlightAware Approximate
Sat 04:26:00 PM 15.8349 -76.1812 165° South  Level FlightAware Approximate
Sat 04:27:00 PM 15.7105 -76.1467 165° South  Level FlightAware Approximate
Sat 04:28:00 PM 15.5862 -76.1121 165° South  Level FlightAware Approximate
Sat 04:29:00 PM 15.4618 -76.0777 165° South  Level FlightAware Approximate
Sat 04:30:00 PM 15.3375 -76.0432 165° South  Level FlightAware Approximate
Sat 04:31:00 PM 15.2131 -76.0088 165° South  Level FlightAware Approximate
Sat 04:32:00 PM 15.0887 -75.9745 165° South  Level FlightAware Approximate
Sat 04:33:00 PM 14.9644 -75.9401 165° South  Level FlightAware Approximate
Sat 04:34:00 PM 14.8401 -75.9055 165° South  Level FlightAware Approximate
Sat 04:35:00 PM 14.7158 -75.8710 165° South  Level FlightAware Approximate
Sat 04:36:00 PM 14.5914 -75.8365 165° South  Level FlightAware Approximate
Sat 04:37:00 PM 14.4671 -75.8021 165° South  Level FlightAware Approximate
Sat 04:38:00 PM 14.3428 -75.7677 165° South  Level FlightAware Approximate
Sat 04:39:00 PM 14.2185 -75.7334 165° South  Level FlightAware Approximate
Sat 04:40:00 PM 14.0941 -75.6990 165° South  Level FlightAware Approximate
Sat 04:41:00 PM 13.9698 -75.6647 165° South  Level FlightAware Approximate
Sat 04:42:00 PM 13.8454 -75.6305 165° South  Level FlightAware Approximate
Sat 04:43:00 PM 13.7211 -75.5963 165° South  Level FlightAware Approximate
Sat 04:44:00 PM 13.5967 -75.5621 165° South  Level FlightAware Approximate
Sat 04:45:00 PM 13.4724 -75.5280 165° South  Level FlightAware Approximate
Sat 04:46:00 PM 13.3480 -75.4939 165° South  Level FlightAware Approximate
Sat 04:47:00 PM 13.2236 -75.4598 165° South  Level FlightAware Approximate
Sat 04:48:00 PM 13.0992 -75.4258 165° South  Level FlightAware Approximate
Sat 04:49:00 PM 12.9749 -75.3918 165° South  Level FlightAware Approximate
Sat 04:50:00 PM 12.8505 -75.3578 165° South  Level FlightAware Approximate
Sat 04:51:00 PM 12.7261 -75.3239 165° South  Level FlightAware Approximate
Sat 04:52:00 PM 12.6017 -75.2900 165° South  Level FlightAware Approximate
Sat 04:53:00 PM 12.4773 -75.2561 165° South  Level FlightAware Approximate
Sat 04:54:00 PM 12.3529 -75.2223 165° South  Level FlightAware Approximate
Sat 04:55:00 PM 12.2285 -75.1885 165° South  Level FlightAware Approximate
Sat 04:56:00 PM 12.1041 -75.1547 165° South  Level FlightAware Approximate
Sat 04:57:00 PM 11.9797 -75.1210 165° South  Level FlightAware Approximate
Sat 04:58:00 PM 11.8553 -75.0873 165° South  Level FlightAware Approximate
Sat 04:59:00 PM 11.7308 -75.0536 165° South  Level FlightAware Approximate
Sat 05:00:00 PM 11.6064 -75.0200 165° South  Level FlightAware Approximate
Sat 05:01:00 PM 11.4820 -74.9863 165° South  Level FlightAware Approximate
Sat 05:02:00 PM 11.3575 -74.9528 165° South  Level FlightAware Approximate
Sat 05:03:00 PM 11.2331 -74.9192 165° South  Level FlightAware Approximate
Sat 05:04:00 PM 11.1087 -74.8857 165° South  Level FlightAware Approximate
Sat 05:05:00 PM 10.9843 -74.8521 165° South  Level FlightAware Approximate
Sat 05:06:00 PM 10.8598 -74.8185 165° South  Level FlightAware Approximate
Sat 05:07:00 PM 10.7354 -74.7849 165° South  Level FlightAware Approximate
Sat 05:08:00 PM 10.6110 -74.7514 165° South  Level FlightAware Approximate
Sat 05:09:00 PM 10.4866 -74.7179 165° South  Level FlightAware Approximate
Sat 05:10:00 PM 10.3621 -74.6844 165° South  Level FlightAware Approximate
Sat 05:11:00 PM 10.2377 -74.6510 165° South  Level FlightAware Approximate
Sat 05:12:00 PM 10.1132 -74.6176 165° South  Level FlightAware Approximate
Sat 05:13:00 PM 9.9888 -74.5842 165° South  Level FlightAware Approximate
Sat 05:14:00 PM 9.8644 -74.5508 165° South  Level FlightAware Approximate
Sat 05:15:00 PM 9.7399 -74.5175 165° South  Level FlightAware Approximate
Sat 05:16:00 PM 9.6154 -74.4842 165° South  Level FlightAware Approximate
Sat 05:17:00 PM 9.4909 -74.4511 165° South  Level FlightAware Approximate
Sat 05:18:00 PM 9.3664 -74.4182 165° South  Level FlightAware Approximate
Sat 05:19:00 PM 9.2418 -74.3853 165° South  Level FlightAware Approximate
Sat 05:20:00 PM 9.1173 -74.3525 165° South  Level FlightAware Approximate
Sat 05:21:00 PM 8.9927 -74.3197 165° South  Level FlightAware Approximate
Sat 05:22:00 PM 8.8681 -74.2869 165° South  Level FlightAware Approximate
Sat 05:23:00 PM 8.7435 -74.2542 165° South  Level FlightAware Approximate
Sat 05:24:00 PM 8.6189 -74.2214 165° South  Level FlightAware Approximate
Sat 05:25:00 PM 8.4944 -74.1887 165° South  Level FlightAware Approximate
Sat 05:26:00 PM 8.3698 -74.1560 165° South  Level FlightAware Approximate
Sat 05:27:00 PM 8.2452 -74.1233 165° South  Level FlightAware Approximate
Sat 05:28:00 PM 8.1206 -74.0907 165° South  Level FlightAware Approximate
Sat 05:29:00 PM 7.9960 -74.0580 165° South  Level FlightAware Approximate
Sat 05:30:00 PM 7.8714 -74.0254 165° South  Level FlightAware Approximate
Sat 05:31:00 PM 7.7468 -73.9928 165° South  Level FlightAware Approximate
Sat 05:32:00 PM 7.6222 -73.9602 165° South  Level FlightAware Approximate
Sat 05:33:00 PM 7.4976 -73.9277 165° South  Level FlightAware Approximate
Sat 05:34:00 PM 7.3730 -73.8951 165° South  Level FlightAware Approximate
Sat 05:35:00 PM 7.2484 -73.8626 165° South  Level FlightAware Approximate
Sat 05:36:00 PM 7.1240 -73.8293 165° South  Level FlightAware Approximate
Sat 05:37:00 PM 6.9992 -73.8000 180° South  Level FlightAware Approximate
Sat 05:38:00 PM 6.8705 -73.8000 180° South  Level FlightAware Approximate
Sat 05:39:00 PM 6.7420 -73.8058 186° South  Level FlightAware Approximate
Sat 05:40:00 PM 6.6139 -73.8167 180° South  Level FlightAware Approximate
Sat 05:41:00 PM 6.4851 -73.8167 180° South  Level FlightAware Approximate
Sat 05:42:00 PM 6.3564 -73.8167 180° South  Level FlightAware Approximate
Sat 05:43:00 PM 6.2279 -73.8209 184° South  Level FlightAware Approximate
Sat 05:44:00 PM 6.0995 -73.8308 184° South  Level FlightAware Approximate
Sat 05:45:00 PM 5.9710 -73.8362 182° South  Level FlightAware Approximate
Sat 05:46:00 PM 5.8423 -73.8401 182° South  Level FlightAware Approximate
Sat 05:47:00 PM 5.7136 -73.8440 182° South  Level FlightAware Approximate
Sat 05:48:00 PM 5.5850 -73.8479 182° South  Level FlightAware Approximate
Sat 05:49:00 PM 5.4626 -73.8770 206° Southwest  Level FlightAware Approximate
Sat 05:50:00 PM 5.3402 -73.9163 197° South  Level FlightAware Approximate
Sat 05:51:00 PM 5.2175 -73.9553 198° South  Level FlightAware Approximate
Sat 05:52:00 PM 5.0953 -73.9960 198° South  Level FlightAware Approximate
Sat 05:53:00 PM 4.9732 -74.0367 198° South  Level FlightAware Approximate
Sat 05:54:00 PM 4.8528 -74.0822 202° Southwest  Level FlightAware Approximate
Sat 05:55:00 PM 4.7316 -74.1228 198° South  Level FlightAware Approximate
Sat 05:56:00 PM 4.7000 -74.1333 198° South  Level FlightAware Approximate
Sat 05:57:00 PM 4.7016 -74.1469 198° South  Level Estimated
Sat 05:58:00 PM 4.7016 -74.1469 198° South  Level Estimated
Sat 05:59:00 PM 4.7016 -74.1469 198° South  Level Estimated
Sat 06:00:00 PM 4.7016 -74.1469 198° South  Level Estimated
Sat 06:01:00 PM 4.7016 -74.1469 198° South  Level Estimated
Sat 06:02:00 PM 4.7016 -74.1469 198° South  Level Estimated
Sat 06:03:00 PM 4.7016 -74.1469 198° South  Level Estimated
Sat 06:04:00 PM 4.7016 -74.1469 198° South  Level Estimated
Sat 06:05:00 PM 4.7016 -74.1469 198° South  Level Estimated
Sat 06:06:00 PM 4.7016 -74.1469 198° South  Level Estimated
Sat 06:07:00 PM 4.7016 -74.1469 198° South  Level Estimated
Sat 06:08:00 PM 4.7016 -74.1469 198° South  Level Estimated
Sat 06:09:00 PM 4.7016 -74.1469 198° South  Level Estimated
Sat 06:10:00 PM 4.7016 -74.1469 198° South  Level Estimated

Login

Don't have an account? Register now (free) for customized features, flight alerts, and more!